公司信息

  • 联系人: 圣禾堂客服
  • 洽洽:
  • 所在地:
  • 会员年限: 会员5
  • 企业资质: 查看诚信档案
  • 实体认证: 已认证(2023-10-13)
去分享

圣禾堂(深圳)电子科技有限公司

主营产品 : 存储IC | 保护IC | 贴片三极管 | 功率三极管
  1. 1
公司信息 更多>
  • 电 话:
     万平仓储
     假期联系
     假期联系
  • Q  Q:
  • 地 址:
    深圳市龙岗区坂田街道新天下工业城百瑞达大厦A2座3楼
圣禾堂(深圳)电子科技有限公司(简称“圣禾堂在线”)成立于2011年9月10日,是一家专注于提供电子元器件采购服务的分销商,产品涵盖分立器件、主控芯片、被动器件、连接器、国产器件等核心品类。 依托自营现货库存、全球供应链资源、CNAS/CMA双认证实验室及数字化系统能力,为客户提供现货服务、BOM配单、国产替代、品质检测等一站式采购解决方案。

公司视频

型号/型号规格   厂商 封装 批号 数量 更新日期 询价
暂无数据
1SMA5918BT3G ONSEMI/安森美 SMA 26+ 48372 2026-08-31
FDS9926A ONSEMI/安森美 SO-8 26+ 9551 2026-08-31
TPL0501-100DCNR TI/德州仪器 SOT-23-8 26+ 3970 2026-08-31
HFD4/24 HONGFA/宏发 DIP 26+ 3999 2026-08-31
BSC110N15NS5 INFINEON/英飞凌 TDSON-8(5x6) 24+ 3188 2026-08-31
ALT3232M-151-T001 TDK/东电化 1212 26+ 5076 2026-08-31
OT705050MJBA4SL YXC/扬兴 SMD7050-4P 26+ 4797 2026-08-31
BNX016-01 MURATA/村田 NA 26+ 2223 2026-08-31
型号/型号规格   厂商 封装 批号 数量 更新日期 询价
暂无数据
OPA2140AIDR TI/德州仪器 SOIC-8 26+ 2279 2026-08-31
AD8495ARMZ-R7 ADI/亚德诺 MSOP-8 26+ 565 2026-08-31
INA240A2QPWRQ1 TI/德州仪器 8-TSSOP 26+ 2129 2026-08-31
SGM8249-2XS8G/TR SGMICRO/圣邦微 SOIC-8 26+ 9004 2026-08-31
AD8629ARZ-REEL7 ADI/亚德诺 SO-8 26+ 1604 2026-08-31
OPA551UA/2K5 TI/德州仪器 SOIC-8 26+ 2640 2026-08-31
NJM4558CG-TE2 JRC/新日本无线 SOP-8 26+ 81508 2026-08-31
OP1177ARZ-REEL7 ADI/亚德诺 SOIC-8 25+ 2765 2026-08-31
型号/型号规格   厂商 封装 批号 数量 更新日期 询价
暂无数据
AM26LV31EIDR TI/德州仪器 SOIC-16 26+ 8100 2026-08-31
CH342F WCH/沁恒 QFN-24-EP(4x4) 26+ 5891 2026-08-31
KSZ8041NLI-TR MICROCHIP/微芯 QFN-32-EP(5x5) 26+ 7896 2026-08-31
TPT485E-SO1R 3PEAK/思瑞浦 SOP-8 26+ 50227 2026-08-31
TS5A3357DCUR TI/德州仪器 VSSOP-8-0.5mm 26+ 14682 2026-08-31
MAX3051EKA+T ADI/亚德诺 SOT-23-8 26+ 6572 2026-08-31
FUSB301TMX ONSEMI/安森美 TMLP-10 26+ 13211 2026-08-31
TP75176E-SR 3PEAK/思瑞浦 SOP-8 26+ 29609 2026-08-31
型号/型号规格   厂商 封装 批号 数量 更新日期 询价
暂无数据
SIC437AED-T1-GE3 VISHAY/威世 MLP44-24L(4x4) 26+ 5641 2026-08-31
SCT2450STER SCT/芯洲科技 ESOP-8 26+ 12550 2026-08-31
LM61495QRPHRQ1 TI/德州仪器 VQFN-16-HR(4.5x3.5) 26+ 2665 2026-08-31
SCT82A30DHKR SCT/芯洲科技 QFN-20L(3.5X4.5) 26+ 9139 2026-08-31
SY8088IAAC SILERGY/矽力杰 SOT-23-5 26+ 210811 2026-08-31
LM5576MHX/NOPB TI/德州仪器 HTSSOP-20-EP 26+ 5542 2026-08-31
SCT2401TVBR SCT/芯洲科技 TSOT-23-6L 26+ 39441 2026-08-31
TPS54331DR TI/德州仪器 SOIC-8 26+ 24540 2026-08-31
型号/型号规格   厂商 封装 批号 数量 更新日期 询价
暂无数据
CC0402MRX5R6BB106 YAGEO/国巨 0402 26+ 31589 2026-08-31
CC0603JRNPO9BN102 YAGEO/国巨 0603 26+ 572429 2026-08-31
0603B105K500NT FH/风华高科 0603 26+ 126630 2026-08-31
CL31A476MPHNNNE SAMSUNG/三星 1206 26+ 27961 2026-08-31
GRM188C80E476ME05D MURATA/村田 0603 26+ 29533 2026-08-31
CC1206KKX7R8BB106 YAGEO/国巨 1206 26+ 21285 2026-08-31
GCM188R71E105KA64D MURATA/村田 0603 26+ 176197 2026-08-31
0603B104K500NT FH/风华高科 0603 26+ 368444 2026-08-31
型号/型号规格   厂商 封装 批号 数量 更新日期 询价
暂无数据
MCP1320T-29LE/OT MICROCHIP/微芯 SOT-23-5 26+ 11587 2026-08-31
L78L33ACD13TR ST/意法 SOIC-8 26+ 95722 2026-08-31
MAX6070AAUT25+T ADI/亚德诺 SOT-23-6 25+ 2738 2026-08-31
MCP1525T-I/TT MICROCHIP/微芯 SOT-23 26+ 12885 2026-08-31
TPS3825-33DBVR TI/德州仪器 SOT-23-5 26+ 6014 2026-08-31
REF3030AIDBZR TI/德州仪器 SOT-23 26+ 5792 2026-08-31
SC8815QDER SOUTHCHIP/南芯 QFN-32-EP(4x4) 26+ 7522 2026-08-31
MAX823SEUK+T ADI/亚德诺 SOT-23-5L 26+ 5818 2026-08-31
型号/型号规格   厂商 封装 批号 数量 更新日期 询价
暂无数据
MSS1P4-M3/89A VISHAY/威世 MicroSMP 26+ 193440 2026-08-31
SS5P6HM3_A/H VISHAY/威世 TO-277A 25+ 42246 2026-08-31
MBR40250G ONSEMI/安森美 TO-220-2 26+ 6901 2026-08-31
PMEG4050EP,115 NEXPERIA/安世 SOD-128 26+ 50067 2026-08-31
SSB44-E3/52T VISHAY/威世 DO-214AA(SMB) 26+ 49537 2026-08-31
B3100BE-13 DIODES/美台 SMB 26+ 33321 2026-08-31
V25PN60-M3/86A VISHAY/威世 TO-277A 26+ 8549 2026-08-31
SSB43L-E3/52T VISHAY/威世 SMB(DO-214AA) 26+ 43849 2026-08-31
型号/型号规格   厂商 封装 批号 数量 更新日期 询价
暂无数据
ISO7761DBQR TI/德州仪器 SSOP-16 24+ 1666 2026-08-31
ADUM3201ARZ-RL7 ADI/亚德诺 SOIC-8 26+ 2174 2026-08-31
ISO7762FDBQR TI/德州仪器 SSOP-16-150mil 25+ 2386 2026-08-31
π121U31 2PAI SEMI/荣湃 SOIC8_150MIL 26+ 20768 2026-08-31
ISO1640BDR TI/德州仪器 SOIC-8 26+ 4283 2026-08-31
CA-IS3021S CHIPANALOG/川土微 SOIC-8 26+ 7177 2026-08-31
HCPL-181-00CE BROADCOM/博通 SOP-4-2.54mm 25+ 29430 2026-08-31
NSI8220N1-DSPR NOVOSENSE/纳芯微 SOP-8 26+ 13577 2026-08-31
型号/型号规格   厂商 封装 批号 数量 更新日期 询价
暂无数据
TPD2E009DBZR TI/德州仪器 SOT-23 26+ 14896 2026-08-31
ESD9X5.0ST5G ONSEMI/安森美 SOD-923 26+ 143154 2026-08-31
PESD15VL2BT,215 NEXPERIA/安世 SOT-23 26+ 42177 2026-08-31
SMBJ6.0CA-E3/52 VISHAY/威世 SMB(DO-214AA) 26+ 39180 2026-08-31
ESD9B5VL-2/TR WILLSEMI/韦尔 FBP-02C 26+ 283664 2026-08-31
MMBZ6V8ALT1G ONSEMI/安森美 SOT-23 26+ 132173 2026-08-31
ESD9M5.0ST5G ONSEMI/安森美 SOD-923 26+ 55348 2026-08-31
RCLAMP0564P.TNT SEMTECH/升特 SLP2010-5 25+ 28253 2026-08-31
型号/型号规格   厂商 封装 批号 数量 更新日期 询价
暂无数据
IRF9Z34NPBF INFINEON/英飞凌 TO-220AB 26+ 15547 2026-08-31
BSS84,215 NEXPERIA/安世 SOT-23 25+ 71981 2026-08-31
IRF5305PBF INFINEON/英飞凌 TO-220AB 26+ 13067 2026-08-31
SI4435DDY-T1-GE3 VISHAY/威世 SO-8 26+ 24164 2026-08-31
SQJ459EP-T1_GE3 VISHAY/威世 PowerPAKSO-8L 26+ 7727 2026-08-31
IPD30N10S3L-34 INFINEON/英飞凌 TO-252-3 26+ 10101 2026-08-31
BSS816NWH6327XTSA1 INFINEON/英飞凌 SOT-323-3 26+ 72877 2026-08-31
SI7852DP-T1-E3 VISHAY/威世 PowerPAK-SO-8 26+ 3101 2026-08-31
型号/型号规格   厂商 封装 批号 数量 更新日期 询价
暂无数据
TLV1117LV33DCYR TI/德州仪器 SOT-223 26+ 15341 2026-08-31
LM317D2T-TR ST/意法 TO-263-2 26+ 10427 2026-08-31
XC6220B331MR-G TOREX/特瑞仕 SOT-25 26+ 13130 2026-08-31
NCP1117LPST50T3G ONSEMI/安森美 SOT-223 26+ 17368 2026-08-31
ADM7171ACPZ-R7 ADI/亚德诺 LFCSP-8-WD(3x3) 26+ 2118 2026-08-31
NCP1117LPST33T3G ONSEMI/安森美 SOT-223 26+ 27430 2026-08-31
TPS7A4700RGWR TI/德州仪器 VQFN-20-EP(5x5) 26+ 898 2026-08-31
TPS75733KTTR TI/德州仪器 TO-263-5 26+ 803 2026-08-31
型号/型号规格   厂商 封装 批号 数量 更新日期 询价
暂无数据
STD16N50M2 ST/意法 TO-252-2 24+ 2483 2026-08-31
MBT3946DW1T1G ONSEMI/安森美 SC-88 26+ 59687 2026-08-31
2031-15T-SM-RPLF BOURNS/伯恩斯 SMD 25+ 2939 2026-08-31
MT41K256M16TW-107 IT:P MICRON/美光 FBGA-96 25+ 118 2026-08-31
HFBR-1528Z AVAGO/安华高 NA 26+ 284 2026-08-31
5747840-6 TE/泰科 NA 26+ 1336 2026-08-31
2414-002-1886 TE/泰科 - 25+ 1998 2026-08-31
BPW85B VISHAY/威世 T-1 26+ 10187 2026-08-31
型号/型号规格   厂商 封装 批号 数量 更新日期 询价
暂无数据
STB36N60M6 ST/意法 TO-263 26+ 897 2026-08-31
STD4NK100Z ST/意法 DPAK 23+ 2498 2026-08-31
STD7N80K5 ST/意法 DPAK 25+ 2500 2026-08-31
STP40N65M2 ST/意法 TO-220 23+ 998 2026-08-31
STB30N65M5 ST/意法 D2PAK 25+ 1000 2026-08-31
NVMFS5113PLT1G ONSEMI/安森美 SO-FL-8 26+ 1489 2026-08-31
STD5NM60-1 ST/意法 TO-251(IPAK) 25+ 3000 2026-08-31
STY60NK30Z ST/意法 TO-247-3 24+ 591 2026-08-31
型号/型号规格   厂商 封装 批号 数量 更新日期 询价
暂无数据
AD8250ARMZ-R7 ADI/亚德诺 MSOP-10 26+ 500 2026-08-31
LT6015HS5#TRMPBF ADI/亚德诺 SOT-5 25+ 1481 2026-08-31
AD8572ARZ-REEL ADI/亚德诺 SOIC-8 26+ 3328 2026-08-31
INA163UA/2K5 TI/德州仪器 SOIC-14 25+ 3291 2026-08-31
TSV914IDT ST/意法 SOP-14 23+ 27500 2026-08-31
LT6220IS5#TRPBF ADI/亚德诺 TSOT-23-5 26+ 3154 2026-08-31
AD8604ARUZ-REEL ADI/亚德诺 CutTape 26+ 1810 2026-08-31
NJM5532M-TE1 JRC/新日本无线 DMP-8 25+ 23773 2026-08-31
型号/型号规格   厂商 封装 批号 数量 更新日期 询价
暂无数据
TMC2660C-PA-T ADI/亚德诺 PQFP-44 26+ 197 2026-08-31
L298HN ST/意法 Multiwatt-15 24+ 488 2026-08-31
L297D013TR ST/意法 SO-20-300mil 23+ 792 2026-08-31
IR2127STRPBF INFINEON/英飞凌 SOIC-8 26+ 5000 2026-08-31
IRS10752LTRPBF INFINEON/英飞凌 SOT-23-6 26+ 8524 2026-08-31
E-L6258EXTR ST/意法 PowerSO-36 24+ 600 2026-08-31
BD6221F-E2 ROHM/罗姆 SOP-8 26+ 4600 2026-08-31
NCP252160MNTWG ONSEMI/安森美 PQFN-31(5x5) 26+ 2933 2026-08-31
型号/型号规格   厂商 封装 批号 数量 更新日期 询价
暂无数据
UCC28950PWR TI/德州仪器 TSSOP-24 26+ 1999 2026-08-31
LT8641EUDC#TRPBF ADI/亚德诺 QFN-20(3x4) 26+ 1473 2026-08-31
SIC462ED-T1-GE3 VISHAY/威世 MLP55-27L(5x5) 26+ 8901 2026-08-31
LTM4668AEY#PBF ADI/亚德诺 BGA-49 26+ 417 2026-08-31
LTM4671EY#PBF ADI/亚德诺 BGA-209(9.5x16) 26+ 223 2026-08-31
NCV5171EDR2G ONSEMI/安森美 SOIC-8 26+ 2173 2026-08-31
L296 ST/意法 Multiwatt-15V 500 2026-08-31
LTM8049EY#PBF ADI/亚德诺 BGA-77 26+ 147 2026-08-31
型号/型号规格   厂商 封装 批号 数量 更新日期 询价
暂无数据
CYUSB3014-BZXI INFINEON/英飞凌 BGA-121 26+ 1680 2026-08-31
LAN9514-JZX MICROCHIP/微芯 QFN-64-EP(9x9) 26+ 3362 2026-08-31
SI3019-F-FTR SKYWORKS/思佳讯 16-TSSOP 25+ 2500 2026-08-31
SI3050-E1-FTR SKYWORKS/思佳讯 20-TSSOP 26+ 2490 2026-08-31
ADG1411YRUZ-REEL7 ADI/亚德诺 TSSOP-28 25+ 984 2026-08-31
ADG409BRZ-REEL7 ADI/亚德诺 SOIC-16 25+ 944 2026-08-31
NCV7356D1R2G ONSEMI/安森美 8-SOIC 26+ 2500 2026-08-31
TRSF3221EIRGTR TI/德州仪器 VQFN-16(3x3) 26+ 2329 2026-08-31
型号/型号规格   厂商 封装 批号 数量 更新日期 询价
暂无数据
XC6121E523MR-G TOREX/特瑞仕 SOT-25-5 26+ 3000 2026-08-31
TS4431AILT ST/意法 SOT-23-5 23+ 2998 2026-08-31
TPS3808G125DBVR TI/德州仪器 SOT-23-6 26+ 3384 2026-08-31
LM4040CYM3-2.5-TR MICROCHIP/微芯 SOT-23 25+ 8132 2026-08-31
STGAP2SICSNCTR ST/意法 SO-8 2500 2026-08-31
VIPER17HN ST/意法 DIP-7 6742 2026-08-31
LTC4218IGN#TRPBF ADI/亚德诺 SSOP-16 26+ 600 2026-08-31
TPS3808G33DBVR TI/德州仪器 SOT-23-6 26+ 17938 2026-08-31
型号/型号规格   厂商 封装 批号 数量 更新日期 询价
暂无数据
VND3NV04TR-E ST/意法 DPAK 2478 2026-08-31
VN340SPTR-E ST/意法 PowerSO-10 26+ 580 2026-08-31
VND5E160MJTR-E ST/意法 PowerSSO-12 24+ 2500 2026-08-31
VN5050AJTR-E ST/意法 PowerSSO-12 24+ 2500 2026-08-31
VND830SPTR-E ST/意法 PowerSO-10 23+ 598 2026-08-31
VN7E010AJTR ST/意法 PowerSSO-16 23+ 2498 2026-08-31
AP2280-2WG-7 DIODES/美台 SOT-25-5 26+ 11485 2026-08-31
VND9012AJTR ST/意法 PowerSSO-16 25+ 2500 2026-08-31
型号/型号规格   厂商 封装 批号 数量 更新日期 询价
暂无数据
STM32F103RBH6TR ST/意法 BGA-64 2299 2026-08-31
S9KEAZ128AMLH NXP/恩智浦 LQFP-64(10x10) 26+ 3474 2026-08-31
STM32F429IIT6 ST/意法 LQFP-176(24x24) 26+ 579 2026-08-31
STM32L051C8T6 ST/意法 LQFP-48(7x7) 26+ 6102 2026-08-31
STM32F100R8T6B ST/意法 LQFP-64(10x10) 25+ 1917 2026-08-31
STM32H743BIT6 ST/意法 LQFP-208(28x28) 23+ 720 2026-08-31
STM32G431RBT6 ST/意法 LQFP-64(10x10) 26+ 1851 2026-08-31
STM32F429IGH6 ST/意法 UFBGA-201 26+ 957 2026-08-31
型号/型号规格   厂商 封装 批号 数量 更新日期 询价
暂无数据
ADM3252EABCZ ADI/亚德诺 CSPBGA-44 26+ 199 2026-08-31
ADM3054BRWZ-RL7 ADI/亚德诺 SOIC-16-300mil 26+ 788 2026-08-31
ADN4650BRSZ-RL7 ADI/亚德诺 SSOP-20-208mil 25+ 149 2026-08-31
ADUM7441CRQZ-RL7 ADI/亚德诺 QSOP-16 26+ 974 2026-08-31
ADN4650BRWZ-RL7 ADI/亚德诺 CutTape 26+ 399 2026-08-31
π141M61 2PAI SEMI/荣湃 WBSOIC-16 26+ 4508 2026-08-31
ADM2687EBRIZ-RL7 ADI/亚德诺 SOIC-16-300mil 25+ 236 2026-08-31
π160E30 2PAI SEMI/荣湃 NBSOIC-16 26+ 3461 2026-08-31
型号/型号规格   厂商 封装 批号 数量 更新日期 询价
暂无数据
SKY77643-21 SKYWORKS/思佳讯 QFN 26+ 4500 2026-08-31
SPC560B40L3C6E0X ST/意法 LQFP-100(14x14) 23+ 1000 2026-08-31
AT89S52-24AU MICROCHIP/微芯 TQFP-44(10x10) 26+ 2131 2026-08-31
PIC16F627A-I/SO MICROCHIP/微芯 18-SOIC 26+ 1698 2026-08-31
BSP89H6327XTSA1 INFINEON/英飞凌 SOT-223-4 26+ 19300 2026-08-31
ATTINY1617-MNR MICROCHIP/微芯 VQFN-24-EP(4x4) 23+ 4829 2026-08-31
XC7Z035-2FFG900I XILINX/赛灵思 FBGA-900 25+ 35 2026-08-31
MSP430F169IPMR TI/德州仪器 LQFP-64(10x10) 25+ 1121 2026-08-31
型号/型号规格   厂商 封装 批号 数量 更新日期 询价
暂无数据
MMBZ5245B-7-F DIODES/美台 SOT-23 24+ 330 2026-08-31
REF3030AIM3/TR HGSEMI/华冠 SOT-23-3 26+ 33 2026-08-31
MCR03EZPFX3401 ROHM/罗姆 0603 4755 2026-08-31
RS-03K1501FT FH/风华高科 0603 26+ 3578 2026-08-31
RC0201FR-07680RL YAGEO/国巨 0201 26+ 5951 2026-08-31
LL4148 STARSEA/星海 LL-34 26+ 1298 2026-08-31
DDZ11B-7 DIODES/美台 SOD-123 379 2026-08-31
FRC0603J203 TS FOJAN/富捷 0603 26+ 4803 2026-08-31
型号/型号规格   厂商 封装 批号 数量 更新日期 询价
暂无数据
FRC0603J203 TS FOJAN/富捷 0603 26+ 4803 2026-08-31
FRC0603F1583TS FOJAN/富捷 0603 26+ 5801 2026-08-31
FCC0603N0R5C500CT FOJAN/富捷 0603 26+ 2944 2026-08-31
FRC0603J912 TS FOJAN/富捷 0603 26+ 8218 2026-08-31
FRC0603F1783TS FOJAN/富捷 0603 25+ 4798 2026-08-31
FRC0603F6201TS FOJAN/富捷 0603 26+ 5254 2026-08-31
FRC0603J681 TS FOJAN/富捷 0603 26+ 6298 2026-08-31
FRC0603J6R8 TS FOJAN/富捷 0603 26+ 4898 2026-08-31
型号/型号规格   厂商 封装 批号 数量 更新日期 询价
暂无数据
0603WAF2153T5E UNIOHM/厚声 0603 26+ 7189 2026-08-31
0603WAF1332T5E UNIOHM/厚声 0603 26+ 4450 2026-08-31
0603WAF470KT5E UNIOHM/厚声 0603 26+ 2759 2026-08-31
1206W4F1005T5E UNIOHM/厚声 1206 26+ 2062 2026-08-31
0402WGF3483TCE UNIOHM/厚声 0402 24+ 9078 2026-08-31
0603WAF1504T5E UNIOHM/厚声 0603 26+ 9290 2026-08-31
0402WGF3321TCE UNIOHM/厚声 0402 26+ 11373 2026-08-31
0201WMF2491TEE UNIOHM/厚声 0201 26+ 8623 2026-08-31
型号/型号规格   厂商 封装 批号 数量 更新日期 询价
暂无数据
RS-03K1501FT FH/风华高科 0603 26+ 3578 2026-08-31
RC-02K5902FT FH/风华高科 0402 26+ 11842 2026-08-31
RS-03K3303FT FH/风华高科 0603 26+ 4204 2026-08-31
RC-02K514JT FH/风华高科 0402 26+ 12125 2026-08-31
RC-01W222JT FH/风华高科 0201 26+ 12038 2026-08-31
RS-03K1213FT FH/风华高科 0603 26+ 7739 2026-08-31
RS-05K300JT FH/风华高科 0805 26+ 5438 2026-08-31
RC-02K1872FT FH/风华高科 0402 25+ 18273 2026-08-31
型号/型号规格   厂商 封装 批号 数量 更新日期 询价
暂无数据
RC0201FR-07680RL YAGEO/国巨 0201 26+ 5951 2026-08-31
CC0603JRX7R7BB474 YAGEO/国巨 0603 26+ 471 2026-08-31
AC0603FR-071K24L YAGEO/国巨 0603 26+ 4207 2026-08-31
AC0402FR-071K37L YAGEO/国巨 0402 26+ 10000 2026-08-31
AC0402FR-07316KL YAGEO/国巨 0402 26+ 6885 2026-08-31
RT0603BRD071K5L YAGEO/国巨 0603 26+ 420 2026-08-31
RC1206JR-7W0RL YAGEO/国巨 NA 26+ 515 2026-08-31
PU2512FKMP50R002L YAGEO/国巨 NA 26+ 22 2026-08-31
型号/型号规格   厂商 封装 批号 数量 更新日期 询价
暂无数据
TCC0603X7R104J101CT CCTC/三环 0603 26+ 680 2026-08-31
TCC1206X7R271K202FT CCTC/三环 1206 24+ 878 2026-08-31
TCC0603X7R332M500CT CCTC/三环 0603 25+ 3653 2026-08-31
TCC0603X7R473M500CT CCTC/三环 0603 26+ 2288 2026-08-31
TCC0805X7R221K101DT CCTC/三环 0805 26+ 1543 2026-08-31
TCC0402C0G100J500AT CCTC/三环 0402 26+ 4813 2026-08-31
TCC0603X7R221K500CT CCTC/三环 0603 26+ 4023 2026-08-31
TCC0603X7R131K500CT CCTC/三环 0603 25+ 3538 2026-08-31
型号/型号规格   厂商 封装 批号 数量 更新日期 询价
暂无数据
MMBZ5245B-7-F DIODES/美台 SOT-23 24+ 330 2026-08-31
DDZ11B-7 DIODES/美台 SOD-123 379 2026-08-31
AP2101MPG-13 DIODES/美台 MSOP-8-EP 35 2026-08-31
74LVCH2T45HK3-7 DIODES/美台 X2-DFN1410-8 23+ 59 2026-08-31
AP21410FM-7 DIODES/美台 DFN2018-6-EP 23+ 53 2026-08-31
DSS4160U-7 DIODES/美台 SOT-323 26+ 94 2026-08-31
DMN62D0UWQ-7 DIODES/美台 SOT-323 120 2026-08-31
RS2JA-13-F DIODES/美台 DO-214AC 70 2026-08-31
型号/型号规格   厂商 封装 批号 数量 更新日期 询价
暂无数据
MB6S CJ(江苏长电/长晶) MBS 25+ 441 2026-08-31
BAS40WS CJ(江苏长电/长晶) SOD-323 25+ 412 2026-08-31
BZT52C5V6S CJ(江苏长电/长晶) SOD-323 25+ 700 2026-08-31
BZX84C33 CJ(江苏长电/长晶) SOT-23 25+ 642 2026-08-31
BCX56-10 CJ(江苏长电/长晶) SOT-89-3L 26+ 244 2026-08-31
MBR0530 CJ(江苏长电/长晶) SOD-123 25+ 468 2026-08-31
FMMT493 CJ(江苏长电/长晶) SOT-23 26+ 355 2026-08-31
BCX53 CJ(江苏长电/长晶) SOT-89(SOT-89-3) 26+ 275 2026-08-31
型号/型号规格   厂商 封装 批号 数量 更新日期 询价
暂无数据
VS-60APU02-N3 VISHAY/威世 TO-247AC-3 23+ 5 2026-08-31
SQ2319ADS-T1_GE3 VISHAY/威世 SOT-23 23+ 29 2026-08-31
SI1021R-T1-GE3 VISHAY/威世 SC-75A 23+ 42 2026-08-31
SQ4940AEY-T1_GE3 VISHAY/威世 SO-8 13 2026-08-31
MMA02040C1001FB300 VISHAY/威世 MELF-0204 25+ 340 2026-08-31
ES3G-E3/9AT VISHAY/威世 DO-214AB 24+ 45 2026-08-31
SQ2398ES-T1_BE3 VISHAY/威世 SOT-23-3(TO-236-3) 20 2026-08-31
S1GHE3_A/I VISHAY/威世 DO-214AC 23+ 307 2026-08-31
型号/型号规格   厂商 封装 批号 数量 更新日期 询价
暂无数据
ISO7721DWVR TI/德州仪器 SOIC-8 25+ 9 2026-08-31
SN65HVD1785P TI/德州仪器 PDIP-8 23+ 1 2026-08-31
DRV8832DRCR TI/德州仪器 VSON-10-EP(3x3) 23+ 6 2026-08-31
LM5009MMX/NOPB TI/德州仪器 VSSOP-8 24+ 11 2026-08-31
UCC27424DGNR TI/德州仪器 HVSSOP-8-EP-0.65mm 25+ 12 2026-08-31
DP83869HMRGZR TI/德州仪器 VQFN-48-EP(7x7) 24+ 1 2026-08-31
TS5A4594DCKR TI/德州仪器 SC-70-5 23+ 38 2026-08-31
OPA2322AIDGKR TI/德州仪器 VSSOP-8 24+ 4 2026-08-31
相片名称